Data for 06/14/2010

Time Sea-Level Adjusted Pressure Absolute Pressure Temperature Relative Humidity Dew Point   
(mb) (inHg) (mb) (inHg) (C) (F) (%) (C) (F)
00:05 1021 30.15 850 25.1 10.4 50.8 67 4.7 40.4
00:10 1021 30.15 850 25.1 10.1 50.3 67 4.4 39.9
00:15 1021 30.15 850 25.1 10.1 50.3 67 4.2 39.6
00:20 1021 30.15 850 25.1 10.2 50.3 66 4.1 39.3
00:25 1021 30.15 850 25.1 10.2 50.4 65 4 39.2
00:30 1021 30.15 850 25.1 10 50 66 4 39.2
00:35 1021 30.15 850 25.1 9.7 49.5 67 3.9 39.1
00:40 1021 30.15 850 25.1 9.8 49.6 67 4 39.1
00:45 1020 30.12 850 25.1 9.8 49.7 66 3.8 38.9
00:50 1020 30.12 850 25.1 9.8 49.7 64 3.4 38.1
00:55 1020 30.12 850 25.1 9.8 49.6 64 3.3 37.9
01:00 1020 30.12 850 25.1 9.8 49.6 64 3.3 37.9
01:05 1020 30.12 850 25.1 9.7 49.4 65 3.3 38
01:10 1020 30.12 850 25.1 9.6 49.3 65 3.4 38.1
01:15 1020 30.12 850 25.1 9.5 49.1 68 3.9 39
01:20 1020 30.12 850 25.1 9.4 49 68 3.8 38.8
01:25 1020 30.12 849 25.07 9.4 48.9 69 4 39.1
01:30 1020 30.12 849 25.07 9.2 48.5 66 3.2 37.8
01:35 1020 30.12 849 25.07 9.1 48.3 66 3.1 37.5
01:40 1020 30.12 849 25.07 9.3 48.7 65 3 37.5
01:45 1020 30.12 849 25.07 9.3 48.7 65 3 37.5
01:50 1020 30.12 849 25.07 9.2 48.5 65 2.9 37.2
01:55 1020 30.12 849 25.07 9.1 48.4 65 2.8 37.1
02:00 1020 30.12 849 25.07 9.1 48.3 66 3.1 37.5
02:05 1020 30.12 849 25.07 9 48.2 65 2.8 37
02:10 1020 30.12 849 25.07 9.2 48.5 64 2.7 36.9
02:15 1020 30.12 849 25.07 9.4 48.9 64 2.9 37.1
02:20 1020 30.12 849 25.07 9.5 49 64 3.1 37.5
02:25 1020 30.12 849 25.07 9.5 49.2 63 2.9 37.3
02:30 1020 30.12 849 25.07 9.5 49.2 64 3 37.5
02:35 1020 30.12 849 25.07 9.3 48.8 65 3.2 37.8
02:40 1020 30.12 849 25.07 9.1 48.3 66 3 37.5
02:45 1020 30.12 849 25.07 8.9 47.9 67 3 37.4
02:50 1020 30.12 849 25.07 8.9 48 66 3 37.4
02:55 1020 30.12 849 25.07 8.7 47.6 66 2.7 36.8
03:00 1020 30.12 849 25.07 8.5 47.3 65 2.4 36.3
03:05 1020 30.12 849 25.07 8.2 46.8 65 2.2 35.9
03:10 1020 30.12 849 25.07 7.9 46.2 66 2 35.7
03:15 1020 30.12 849 25.07 7.8 46 65 1.7 35
03:20 1020 30.12 849 25.07 7.9 46.3 63 1.3 34.3
03:25 1020 30.12 849 25.07 8.5 47.2 64 2.1 35.8
03:30 1020 30.12 849 25.07 8.5 47.3 64 2.1 35.7
03:35 1020 30.12 849 25.07 8.5 47.2 66 2.4 36.3
03:40 1020 30.12 849 25.07 8.3 46.9 65 2.1 35.8
03:45 1020 30.12 849 25.07 8.3 46.9 66 2.3 36.1
03:50 1020 30.12 849 25.07 8 46.5 68 2.4 36.4
03:55 1020 30.12 849 25.07 7.8 46.1 68 2.4 36.3
04:00 1020 30.12 849 25.07 7.4 45.3 70 2.3 36.1
04:05 1020 30.12 849 25.07 7.1 44.8 69 1.9 35.4
04:10 1020 30.12 849 25.07 7.3 45.1 69 2 35.6
04:15 1020 30.12 849 25.07 7.1 44.9 70 2.1 35.9
04:20 1020 30.12 849 25.07 7.1 44.7 71 2.2 35.9
04:25 1020 30.12 849 25.07 7 44.6 72 2.2 36
04:30 1020 30.12 849 25.07 7.1 44.8 72 2.4 36.2
04:35 1020 30.12 849 25.07 7.2 44.9 71 2.2 35.9
04:40 1020 30.12 849 25.07 7.3 45.1 70 2.2 36
04:45 1020 30.12 849 25.07 7.3 45.1 69 2 35.7
04:50 1020 30.12 849 25.07 7.4 45.2 68 1.8 35.2
04:55 1020 30.12 849 25.07 7.6 45.7 66 1.6 35
05:00 1020 30.12 849 25.07 8 46.4 65 1.8 35.2
05:05 1020 30.12 849 25.07 8.1 46.6 64 1.8 35.2
05:10 1020 30.12 849 25.07 8 46.5 65 1.8 35.3
05:15 1020 30.12 849 25.07 8 46.3 65 1.8 35.2
05:20 1020 30.12 849 25.07 8 46.4 64 1.7 35
05:25 1020 30.12 849 25.07 8.1 46.6 63 1.5 34.6
05:30 1020 30.12 849 25.07 8.1 46.5 63 1.4 34.5
05:35 1020 30.12 849 25.07 8.2 46.8 61 1.1 34
05:40 1020 30.12 849 25.07 8.3 46.9 62 1.5 34.7
05:45 1020 30.12 849 25.07 8.2 46.7 63 1.5 34.7
05:50 1020 30.12 849 25.07 8 46.5 64 1.6 34.8
05:55 1020 30.12 849 25.07 8 46.3 64 1.6 34.9
06:00 1020 30.12 849 25.07 8 46.4 64 1.6 34.9
06:05 1020 30.12 849 25.07 7.9 46.3 65 1.8 35.3
06:10 1020 30.12 849 25.07 7.5 45.4 67 1.7 35.1
06:15 1020 30.12 850 25.1 7.3 45.1 69 1.9 35.4
06:20 1020 30.12 850 25.1 6.9 44.4 68 1.5 34.7
06:25 1020 30.12 850 25.1 7.4 45.3 65 1.2 34.1
06:30 1020 30.12 850 25.1 8.3 47 60 1.1 34
06:35 1021 30.15 850 25.1 8.9 48 59 1.3 34.4
06:40 1021 30.15 850 25.1 9 48.2 60 1.6 34.8
06:45 1021 30.15 850 25.1 9 48.3 61 1.9 35.3
06:50 1021 30.15 850 25.1 8.9 48.1 62 2 35.7
06:55 1021 30.15 850 25.1 8.9 48.1 62 2 35.6
07:00 1021 30.15 850 25.1 9.1 48.4 61 2 35.6
07:05 1021 30.15 850 25.1 9 48.2 61 1.9 35.5
07:10 1021 30.15 850 25.1 9.1 48.3 60 1.8 35.2
07:15 1021 30.15 850 25.1 9.4 48.9 59 1.9 35.4
07:20 1021 30.15 850 25.1 9.8 49.6 59 2.1 35.8
07:25 1021 30.15 850 25.1 10.2 50.4 57 2.1 35.7
07:30 1021 30.15 850 25.1 10.5 50.8 57 2.5 36.4
07:35 1021 30.15 850 25.1 10.7 51.3 56 2.5 36.4
07:40 1021 30.15 850 25.1 11 51.8 54 2.2 36
07:45 1021 30.15 850 25.1 11.1 52 51 1.4 34.5
07:50 1021 30.15 850 25.1 11.6 52.9 51 2 35.6
07:55 1021 30.15 850 25.1 12.1 53.8 50 2 35.6
08:00 1021 30.15 850 25.1 12.9 55.3 46 1.8 35.2
08:05 1021 30.15 850 25.1 12.6 54.6 48 1.9 35.4
08:10 1021 30.15 850 25.1 13.3 56 46 1.9 35.4
08:15 1021 30.15 850 25.1 13.9 57.1 44 1.9 35.5
08:20 1021 30.15 850 25.1 13.5 56.3 44 1.7 35
08:25 1021 30.15 850 25.1 13.6 56.4 44 1.5 34.8
08:30 1021 30.15 850 25.1 13.7 56.6 45 2.1 35.8
08:35 1021 30.15 850 25.1 13.6 56.4 47 2.6 36.8
08:40 1021 30.15 850 25.1 13.7 56.7 46 2.3 36.1
08:45 1021 30.15 850 25.1 14.1 57.3 44 2.1 35.8
08:50 1021 30.15 850 25.1 14.6 58.2 45 2.9 37.3
08:55 1021 30.15 850 25.1 14.5 58.1 43 2.2 36
09:00 1021 30.15 850 25.1 15.2 59.4 42 2.6 36.7
09:05 1021 30.15 850 25.1 15.5 59.9 41 2.3 36.1
09:10 1021 30.15 850 25.1 15.7 60.2 39 1.9 35.4
09:15 1021 30.15 850 25.1 16.4 61.5 38 2 35.6
09:20 1020 30.12 850 25.1 16.8 62.2 37 2.2 35.9
09:25 1020 30.12 850 25.1 16.3 61.3 36 1.4 34.5
09:30 1020 30.12 850 25.1 17.1 62.9 35 1.7 35.1
09:35 1020 30.12 850 25.1 17.3 63.1 35 1.7 35
09:40 1020 30.12 850 25.1 17.2 63 35 1.9 35.4
09:45 1020 30.12 850 25.1 17.4 63.3 34 1.4 34.6
09:50 1020 30.12 850 25.1 17.1 62.8 36 1.9 35.4
09:55 1020 30.12 850 25.1 16.7 62 38 2.3 36.1
10:00 1020 30.12 849 25.07 17.4 63.2 36 2.2 35.9
10:05 1020 30.12 849 25.07 18 64.5 33 1.7 35.1
10:10 1020 30.12 849 25.07 18.1 64.5 36 2.8 37
10:15 1020 30.12 849 25.07 18.2 64.8 30 0.7 33.2
10:20 1020 30.12 849 25.07 19.1 66.4 30 1.2 34.1
10:25 1020 30.12 849 25.07 19.1 66.4 32 2.3 36.1
10:30 1020 30.12 849 25.07 18.8 65.8 32 1.7 35.1
10:35 1020 30.12 849 25.07 19.4 66.9 31 1.9 35.4
10:40 1020 30.12 849 25.07 19.8 67.6 29 1.3 34.3
10:45 1020 30.12 849 25.07 19.3 66.7 29 0.7 33.3
10:50 1020 30.12 849 25.07 19.6 67.2 30 1.7 35
10:55 1020 30.12 849 25.07 19.4 66.8 30 1.7 35
11:00 1020 30.12 849 25.07 18.8 65.8 30 1.2 34.1
11:05 1020 30.12 849 25.07 18.8 65.8 31 1.5 34.7
11:10 1020 30.12 849 25.07 19.3 66.8 31 2.2 35.9
11:15 1020 30.12 849 25.07 18.7 65.6 33 2.3 36.1
11:20 1020 30.12 849 25.07 18.5 65.3 33 1.9 35.5
11:25 1020 30.12 849 25.07 19.8 67.6 32 2.8 37.1
11:30 1020 30.12 849 25.07 20 68 32 2.9 37.2
11:35 1019 30.09 849 25.07 20.2 68.4 30 2.3 36.1
11:40 1019 30.09 849 25.07 20.6 69.1 29 2.2 35.9
11:45 1019 30.09 849 25.07 20.5 68.8 29 2.2 36
11:50 1019 30.09 849 25.07 20.6 69.1 29 2 35.7
11:55 1019 30.09 849 25.07 21 69.8 29 2.3 36.1
12:00 1019 30.09 849 25.07 20.9 69.6 28 2.1 35.8
12:05 1019 30.09 849 25.07 21.2 70.1 28 2 35.7
12:10 1019 30.09 849 25.07 20.6 69 28 1.6 34.9
12:15 1019 30.09 848 25.04 20.8 69.5 29 2.4 36.3
12:20 1019 30.09 848 25.04 21.3 70.4 29 2.6 36.6
12:25 1019 30.09 848 25.04 21.7 71 26 1.8 35.2
12:30 1019 30.09 848 25.04 21.2 70.2 30 3.3 37.9
12:35 1019 30.09 848 25.04 20.4 68.6 29 2.1 35.8
12:40 1019 30.09 848 25.04 20.2 68.3 31 2.5 36.5
12:45 1019 30.09 848 25.04 20.9 69.5 29 2.2 35.9
12:50 1019 30.09 848 25.04 21.6 70.8 28 2.3 36.1
12:55 1019 30.09 848 25.04 22.1 71.8 26 1.9 35.4
13:00 1019 30.09 848 25.04 21.9 71.3 27 2.1 35.8
13:05 1019 30.09 848 25.04 20.8 69.4 29 2.3 36.2
13:10 1019 30.09 848 25.04 21.8 71.2 28 2.5 36.5
13:15 1019 30.09 848 25.04 22.5 72.4 26 2.5 36.5
13:20 1019 30.09 848 25.04 22.6 72.8 26 2.4 36.3
13:25 1019 30.09 848 25.04 22.7 72.8 26 2.2 36
13:30 1019 30.09 848 25.04 21.6 70.8 28 2.4 36.3
13:35 1019 30.09 848 25.04 21.9 71.4 29 3.1 37.7
13:40 1019 30.09 848 25.04 22.2 72 28 2.9 37.3
13:45 1019 30.09 848 25.04 23 73.3 25 2.3 36.2
13:50 1019 30.09 848 25.04 22.6 72.8 27 2.7 36.9
13:55 1019 30.09 848 25.04 22.9 73.2 25 2.1 35.7
14:00 1018 30.06 848 25.04 23.3 73.9 25 2.1 35.8
14:05 1018 30.06 848 25.04 23.4 74.2 27 3.4 38.1
14:10 1018 30.06 848 25.04 23.3 74 24 1.9 35.5
14:15 1018 30.06 847 25.01 23.1 73.6 26 2.9 37.2
14:20 1018 30.06 847 25.01 22.6 72.7 28 3.4 38.1
14:25 1018 30.06 847 25.01 22.2 72 25 1.6 34.8
14:30 1018 30.06 847 25.01 22.6 72.6 27 2.8 37
14:35 1018 30.06 847 25.01 22.3 72.2 28 3 37.5
14:40 1018 30.06 847 25.01 21.3 70.3 27 1.9 35.5
14:45 1018 30.06 847 25.01 21.5 70.6 26 1.2 34.1
14:50 1018 30.06 847 25.01 22.6 72.7 25 1.9 35.4
14:55 1018 30.06 847 25.01 23.5 74.4 22 1.1 33.9
15:00 1018 30.06 847 25.01 23.4 74.1 21 -0.1 31.8
15:05 1018 30.06 847 25.01 22.9 73.1 21 -0.3 31.5
15:10 1018 30.06 847 25.01 22.6 72.8 22 -0.2 31.7
15:15 1018 30.06 847 25.01 23.1 73.6 22 0.7 33.3
15:20 1018 30.06 847 25.01 23.7 74.7 23 1.7 35.1
15:25 1017 30.03 847 25.01 24.1 75.4 24 2.8 37
15:30 1017 30.03 847 25.01 23.7 74.6 24 2 35.7
15:35 1017 30.03 847 25.01 23.7 74.7 24 1.9 35.4
15:40 1017 30.03 847 25.01 24.1 75.3 24 2.8 37
15:45 1017 30.03 847 25.01 23.8 74.9 24 2.5 36.5
15:50 1017 30.03 847 25.01 23.4 74 25 2.4 36.3
15:55 1017 30.03 846 24.98 23.6 74.5 23 1.4 34.5
16:00 1017 30.03 846 24.98 23.8 74.9 23 1.6 34.9
16:05 1017 30.03 846 24.98 23.9 74.9 23 1.7 35
16:10 1017 30.03 846 24.98 24.3 75.7 24 2.4 36.3
16:15 1017 30.03 846 24.98 23.3 73.9 26 3.1 37.6
16:20 1017 30.03 846 24.98 22.8 73 25 1.7 35.1
16:25 1017 30.03 846 24.98 24 75.2 24 2.6 36.8
16:30 1017 30.03 846 24.98 23.4 74.1 25 2.4 36.3
16:35 1017 30.03 846 24.98 23.3 73.9 24 2 35.6
16:40 1017 30.03 846 24.98 23.3 74 25 2.5 36.6
16:45 1017 30.03 846 24.98 23.7 74.6 25 2.7 36.9
16:50 1017 30.03 846 24.98 23.5 74.2 25 2.6 36.6
16:55 1017 30.03 846 24.98 23 73.4 25 2.1 35.7
17:00 1017 30.03 846 24.98 22.2 71.9 26 1.9 35.5
17:05 1017 30.03 846 24.98 22.6 72.7 25 1.8 35.3
17:10 1016 30 846 24.98 23.4 74.1 24 2 35.6
17:15 1016 30 846 24.98 24.3 75.8 22 1.7 35
17:20 1016 30 846 24.98 24.4 75.9 21 1.2 34.1
17:25 1016 30 846 24.98 24.1 75.5 22 1.4 34.5
17:30 1016 30 845 24.95 22.8 73.1 23 0.5 33
17:35 1016 30 845 24.95 23.4 74 22 0.4 32.7
17:40 1016 30 845 24.95 23.7 74.6 22 0.7 33.2
17:45 1016 30 845 24.95 24.1 75.4 21 0.5 32.9
17:50 1016 30 845 24.95 23.5 74.4 22 0.8 33.4
17:55 1016 30 845 24.95 23.6 74.6 21 0.5 32.8
18:00 1016 30 845 24.95 24 75.2 20 0.1 32.2
18:05 1016 30 845 24.95 24.2 75.6 21 0.5 32.9
18:10 1016 30 845 24.95 23.3 73.9 21 0.1 32.1
18:15 1016 30 845 24.95 23.5 74.4 21 0.5 32.8
18:20 1016 30 845 24.95 23.6 74.6 21 0.1 32.3
18:25 1016 30 845 24.95 24.3 75.8 20 0 32.1
18:30 1016 30 845 24.95 24.2 75.6 20 0.1 32.2
18:35 1016 30 845 24.95 23.8 74.8 18 -1.4 29.5
18:40 1016 30 845 24.95 23.3 74 21 -0.3 31.5
18:45 1016 30 845 24.95 22.7 72.9 21 -0.7 30.7
18:50 1015 29.97 845 24.95 23 73.4 21 -0.5 31
18:55 1015 29.97 845 24.95 22.9 73.2 21 -0.7 30.8
19:00 1015 29.97 845 24.95 23 73.5 20 -0.6 30.8
19:05 1015 29.97 845 24.95 22.7 72.8 21 -0.5 31
19:10 1015 29.97 845 24.95 22.6 72.7 21 -0.7 30.8
19:15 1015 29.97 844 24.92 22.4 72.3 21 -0.8 30.5
19:20 1015 29.97 844 24.92 23.1 73.5 21 -0.5 31.1
19:25 1015 29.97 844 24.92 22.8 73.1 21 -0.2 31.6
19:30 1015 29.97 844 24.92 22.6 72.8 24 1.2 34.2
19:35 1015 29.97 844 24.92 22.3 72.1 22 -0.1 31.8
19:40 1015 29.97 844 24.92 22 71.5 23 0.1 32.2
19:45 1015 29.97 844 24.92 21.7 71.1 24 0.2 32.3
19:50 1015 29.97 844 24.92 21.6 70.9 24 0.3 32.6
19:55 1015 29.97 844 24.92 21.5 70.7 24 0 32
20:00 1015 29.97 844 24.92 21.6 70.8 24 0.3 32.5
20:05 1015 29.97 844 24.92 21.5 70.7 24 0.4 32.7
20:10 1015 29.97 844 24.92 21.4 70.4 25 0.7 33.3
20:15 1015 29.97 844 24.92 21.2 70.2 25 0.8 33.5
20:20 1015 29.97 844 24.92 21.2 70.1 28 2.2 35.9
20:25 1015 29.97 844 24.92 20.9 69.6 30 2.6 36.8
20:30 1015 29.97 844 24.92 20.6 69 32 3.5 38.3
20:35 1015 29.97 844 24.92 20.4 68.7 31 3 37.3
20:40 1015 29.97 844 24.92 20.2 68.4 31 2.6 36.7
20:45 1015 29.97 844 24.92 20.1 68.1 32 2.9 37.2
20:50 1015 29.97 844 24.92 19.8 67.6 33 3.3 38
20:55 1014 29.94 844 24.92 19.5 67.1 34 3.5 38.3
21:00 1014 29.94 844 24.92 19.2 66.5 36 4 39.3
21:05 1014 29.94 844 24.92 18.8 65.9 38 4.3 39.8
21:10 1014 29.94 844 24.92 18.4 65.1 42 5.5 41.9
21:15 1014 29.94 844 24.92 17.4 63.3 46 5.9 42.6
21:20 1014 29.94 844 24.92 17 62.5 44 4.7 40.5
21:25 1014 29.94 844 24.92 17.1 62.7 46 5.5 41.8
21:30 1014 29.94 844 24.92 16.5 61.6 48 5.6 42.1
21:35 1014 29.94 844 24.92 16.4 61.5 46 4.8 40.7
21:40 1014 29.94 844 24.92 16.7 62.1 45 4.9 40.8
21:45 1014 29.94 844 24.92 16.4 61.5 50 6.1 42.9
21:50 1014 29.94 844 24.92 16 60.8 49 5.5 41.9
21:55 1014 29.94 844 24.92 15.6 60.1 52 5.8 42.5
22:00 1014 29.94 844 24.92 15.5 59.9 51 5.6 42
22:05 1014 29.94 844 24.92 15.4 59.7 52 5.6 42.1
22:10 1014 29.94 844 24.92 15.3 59.6 50 5.1 41.1
22:15 1014 29.94 844 24.92 15.3 59.6 50 5.2 41.4
22:20 1014 29.94 844 24.92 15.2 59.4 50 5 41.1
22:25 1015 29.97 844 24.92 15.2 59.4 47 4.1 39.4
22:30 1015 29.97 844 24.92 15.5 59.8 47 4.2 39.6
22:35 1015 29.97 844 24.92 15.8 60.5 46 4.3 39.8
22:40 1015 29.97 844 24.92 15.9 60.6 46 4.2 39.6
22:45 1015 29.97 844 24.92 15.8 60.4 47 4.7 40.4
22:50 1015 29.97 844 24.92 15.5 59.9 46 4.1 39.5
22:55 1015 29.97 844 24.92 15.6 60 44 3.5 38.2
23:00 1015 29.97 844 24.92 15.5 59.9 45 3.8 38.8
23:05 1015 29.97 844 24.92 15.4 59.7 43 3 37.3
23:10 1015 29.97 844 24.92 15.6 60.1 46 4.1 39.4
23:15 1015 29.97 844 24.92 15.3 59.6 45 3.4 38.1
23:20 1015 29.97 844 24.92 15.5 59.9 43 3.1 37.6
23:25 1015 29.97 844 24.92 15.8 60.4 45 3.8 38.9
23:30 1015 29.97 844 24.92 15.9 60.7 46 4.4 40
23:35 1015 29.97 844 24.92 16 60.9 47 4.9 40.8
23:40 1015 29.97 844 24.92 16.2 61.2 49 5.6 42.1
23:45 1015 29.97 844 24.92 16.2 61.1 51 6.1 43
23:50 1015 29.97 844 24.92 16.1 60.9 52 6.4 43.5
23:55 1015 29.97 844 24.92 16.1 60.9 53 6.5 43.6
24:00 1015 29.97 844 24.92 16 60.8 54 6.7 44.1